createdAt,value
2022-08-03T00:01:00.090Z,0.00
2022-08-03T00:03:00.489Z,0.00
2022-08-03T00:08:16.330Z,0.00
2022-08-03T00:10:16.459Z,0.00
2022-08-03T00:12:16.880Z,0.00
2022-08-03T00:14:16.767Z,0.00
2022-08-03T00:16:16.901Z,0.00
2022-08-03T00:18:17.133Z,0.00
2022-08-03T00:20:17.158Z,0.00
2022-08-03T00:22:17.528Z,0.00
2022-08-03T00:24:17.462Z,0.00
2022-08-03T00:26:17.595Z,0.00
2022-08-03T00:28:17.915Z,0.00
2022-08-03T00:30:17.880Z,0.00
2022-08-03T00:32:18.068Z,0.00
2022-08-03T00:34:18.204Z,0.00
2022-08-03T00:36:19.286Z,0.00
2022-08-03T00:38:18.381Z,0.00
2022-08-03T00:40:18.539Z,0.00
2022-08-03T00:42:18.851Z,0.00
2022-08-03T00:44:18.747Z,0.00
2022-08-03T00:46:21.654Z,0.00
2022-08-03T00:48:29.796Z,0.00
2022-08-03T00:50:20.153Z,0.00
2022-08-03T00:52:19.510Z,0.00
2022-08-03T00:54:19.426Z,0.00
2022-08-03T00:56:19.543Z,0.00
2022-08-03T00:58:19.667Z,0.00
2022-08-03T01:00:20.230Z,0.00
2022-08-03T01:02:20.008Z,0.00
2022-08-03T01:04:20.199Z,0.00
2022-08-03T01:06:20.207Z,0.00
2022-08-03T01:08:20.273Z,0.00
2022-08-03T01:10:20.527Z,0.00
2022-08-03T01:12:20.595Z,0.00
2022-08-03T01:14:20.679Z,0.00
2022-08-03T01:16:20.919Z,0.00
2022-08-03T01:18:22.025Z,0.00
2022-08-03T01:20:21.115Z,0.00
2022-08-03T01:22:21.209Z,0.00
2022-08-03T01:24:21.662Z,0.00
2022-08-03T01:26:21.560Z,0.00
2022-08-03T01:28:21.587Z,0.00
2022-08-03T01:30:22.218Z,0.00
2022-08-03T01:32:59.656Z,0.00
2022-08-03T01:34:22.992Z,0.00
2022-08-03T01:36:22.190Z,0.00
2022-08-03T01:38:22.278Z,0.00
2022-08-03T01:40:22.562Z,0.00
2022-08-03T01:42:22.526Z,0.00
2022-08-03T01:44:29.337Z,0.00
2022-08-03T01:46:23.808Z,0.00
2022-08-03T01:48:22.923Z,0.00
2022-08-03T01:50:23.094Z,0.00
2022-08-03T01:52:23.154Z,0.00
2022-08-03T01:54:23.418Z,0.00
2022-08-03T01:56:23.422Z,0.00
2022-08-03T01:58:23.634Z,0.00
2022-08-03T02:00:23.648Z,0.00
2022-08-03T02:02:33.411Z,0.00
2022-08-03T02:04:24.913Z,0.00
2022-08-03T02:07:00.790Z,0.00
2022-08-03T02:08:25.163Z,0.00
2022-08-03T02:10:35.311Z,0.00
2022-08-03T02:12:25.429Z,0.00
2022-08-03T02:14:24.577Z,0.00
2022-08-03T02:16:24.823Z,0.00
2022-08-03T02:18:24.913Z,0.00
2022-08-03T02:20:25.070Z,0.00
2022-08-03T02:22:25.191Z,0.00
2022-08-03T02:24:25.254Z,0.00
2022-08-03T02:26:25.425Z,0.00
2022-08-03T02:28:25.530Z,0.00
2022-08-03T02:30:25.606Z,0.00
2022-08-03T02:32:25.753Z,0.00
2022-08-03T02:34:25.882Z,0.00
2022-08-03T02:36:25.982Z,0.00
2022-08-03T02:38:26.122Z,0.00
2022-08-03T02:40:26.203Z,0.00
2022-08-03T02:42:26.358Z,0.00
2022-08-03T02:44:26.597Z,0.00
2022-08-03T02:46:26.661Z,0.00
2022-08-03T02:48:26.784Z,0.00
2022-08-03T02:50:27.031Z,0.00
2022-08-03T02:52:27.064Z,0.00
2022-08-03T02:54:27.261Z,0.00
2022-08-03T02:56:27.281Z,0.00
2022-08-03T02:58:27.461Z,0.00
2022-08-03T03:00:28.672Z,0.00
2022-08-03T03:02:27.663Z,0.00
2022-08-03T03:04:31.332Z,0.00
2022-08-03T03:06:29.295Z,0.00
2022-08-03T03:08:28.590Z,0.00
2022-08-03T03:10:28.242Z,0.00
2022-08-03T03:12:28.525Z,0.00
2022-08-03T03:14:33.533Z,0.00
2022-08-03T03:16:29.733Z,0.00
2022-08-03T03:18:28.773Z,0.00
2022-08-03T03:20:30.207Z,0.00
2022-08-03T03:22:29.093Z,0.00
2022-08-03T03:24:29.597Z,0.00
2022-08-03T03:26:29.457Z,4.00
2022-08-03T03:28:29.671Z,0.00
2022-08-03T03:30:29.573Z,4.00
2022-08-03T03:32:29.679Z,0.00
2022-08-03T03:34:29.828Z,4.00
2022-08-03T03:36:29.932Z,8.00
2022-08-03T03:38:30.078Z,8.00
2022-08-03T03:40:30.176Z,12.00
2022-08-03T03:42:30.342Z,16.00
2022-08-03T03:44:30.418Z,20.00
2022-08-03T03:46:30.572Z,28.00
2022-08-03T03:48:30.707Z,32.00
2022-08-03T03:50:30.857Z,40.00
2022-08-03T03:52:31.020Z,52.00
2022-08-03T03:54:31.080Z,68.00
2022-08-03T03:56:31.216Z,84.00
2022-08-03T03:58:31.372Z,100.00
2022-08-03T04:00:31.487Z,112.00
2022-08-03T04:02:31.596Z,136.00
2022-08-03T04:04:31.638Z,156.00
2022-08-03T04:06:31.786Z,180.00
2022-08-03T04:08:32.188Z,208.00
2022-08-03T04:10:31.981Z,236.00
2022-08-03T04:12:32.086Z,264.00
2022-08-03T04:14:32.282Z,288.00
2022-08-03T04:17:48.117Z,332.00
2022-08-03T04:19:48.200Z,364.00
2022-08-03T04:21:48.312Z,392.00
2022-08-03T04:23:48.401Z,420.00
2022-08-03T04:25:48.507Z,452.00
2022-08-03T04:28:08.045Z,476.00
2022-08-03T04:29:49.733Z,508.00
2022-08-03T04:31:48.860Z,536.00
2022-08-03T04:33:49.057Z,568.00
2022-08-03T04:35:58.440Z,596.00
2022-08-03T04:37:50.177Z,624.00
2022-08-03T04:39:49.319Z,644.00
2022-08-03T04:42:07.269Z,676.00
2022-08-03T04:43:50.608Z,716.00
2022-08-03T04:45:49.653Z,736.00
2022-08-03T04:47:49.808Z,756.00
2022-08-03T04:49:49.920Z,812.00
2022-08-03T04:51:50.054Z,844.00
2022-08-03T04:53:50.136Z,876.00
2022-08-03T04:55:50.225Z,896.00
2022-08-03T04:57:50.381Z,920.00
2022-08-03T04:59:50.461Z,952.00
2022-08-03T05:01:50.596Z,984.00
2022-08-03T05:03:50.732Z,1016.00
2022-08-03T05:05:51.002Z,1052.00
2022-08-03T05:07:51.071Z,1076.00
2022-08-03T05:09:57.493Z,1104.00
2022-08-03T05:11:52.240Z,1132.00
2022-08-03T05:13:51.415Z,1164.00
2022-08-03T05:15:51.534Z,1184.00
2022-08-03T05:17:51.662Z,1208.00
2022-08-03T05:19:51.803Z,1236.00
2022-08-03T05:21:53.020Z,1272.00
2022-08-03T05:23:52.070Z,1300.00
2022-08-03T05:25:52.163Z,1324.00
2022-08-03T05:27:52.395Z,1352.00
2022-08-03T05:29:52.421Z,1380.00
2022-08-03T05:31:52.557Z,1388.00
2022-08-03T05:33:52.695Z,1424.00
2022-08-03T05:36:02.362Z,1432.00
2022-08-03T05:37:54.784Z,1468.00
2022-08-03T05:39:53.101Z,1516.00
2022-08-03T05:41:53.189Z,1576.00
2022-08-03T05:43:53.335Z,1624.00
2022-08-03T05:46:12.092Z,1692.00
2022-08-03T05:47:54.674Z,1712.00
2022-08-03T05:49:53.739Z,1740.00
2022-08-03T05:51:59.989Z,1740.00
2022-08-03T05:53:54.960Z,1716.00
2022-08-03T05:55:56.975Z,1688.00
2022-08-03T05:57:56.847Z,1668.00
2022-08-03T05:59:58.191Z,1624.00
2022-08-03T06:01:54.503Z,1676.00
2022-08-03T06:03:54.556Z,1724.00
2022-08-03T06:06:00.029Z,1828.00
2022-08-03T06:07:55.846Z,1876.00
2022-08-03T06:10:33.627Z,1940.00
2022-08-03T06:11:56.122Z,2012.00
2022-08-03T06:13:55.309Z,2112.00
2022-08-03T06:15:55.375Z,2196.00
2022-08-03T06:17:58.716Z,2268.00
2022-08-03T06:19:56.656Z,2692.00
2022-08-03T06:21:55.868Z,4352.00
2022-08-03T06:23:55.915Z,25312.00
2022-08-03T06:25:56.190Z,60192.00
2022-08-03T06:27:56.218Z,60800.00
2022-08-03T06:29:56.407Z,46816.00
2022-08-03T06:31:56.494Z,60800.00
2022-08-03T06:34:33.567Z,57568.00
2022-08-03T06:35:57.799Z,62304.00
2022-08-03T06:37:56.977Z,62656.00
2022-08-03T06:39:57.046Z,62336.00
2022-08-03T06:41:57.208Z,64480.00
2022-08-03T06:44:03.201Z,65248.00
2022-08-03T06:45:58.444Z,64096.00
2022-08-03T06:47:58.701Z,65216.00
2022-08-03T06:50:05.600Z,67616.00
2022-08-03T06:52:06.041Z,68640.00
2022-08-03T06:53:59.081Z,68992.00
2022-08-03T06:55:58.126Z,67232.00
2022-08-03T06:58:00.157Z,69408.00
2022-08-03T07:00:07.393Z,70688.00
2022-08-03T07:01:59.548Z,71168.00
2022-08-03T07:03:58.701Z,71456.00
2022-08-03T07:05:58.812Z,70240.00
2022-08-03T07:07:59.027Z,72864.00
2022-08-03T07:09:59.120Z,75808.00
2022-08-03T07:11:59.280Z,69216.00
2022-08-03T07:13:59.445Z,21728.00
2022-08-03T07:15:59.597Z,20672.00
2022-08-03T07:17:59.734Z,20800.00
2022-08-03T07:19:59.870Z,20064.00
2022-08-03T07:22:02.048Z,21472.00
2022-08-03T07:24:00.236Z,24224.00
2022-08-03T07:26:00.319Z,28544.00
2022-08-03T07:28:00.511Z,34400.00
2022-08-03T07:30:00.618Z,35712.00
2022-08-03T07:32:00.759Z,35072.00
2022-08-03T07:34:00.952Z,35328.00
2022-08-03T07:36:01.088Z,35808.00
2022-08-03T07:38:01.203Z,36928.00
2022-08-03T07:40:01.339Z,33856.00
2022-08-03T07:42:01.491Z,32256.00
2022-08-03T07:44:01.603Z,28928.00
2022-08-03T07:46:01.739Z,28256.00
2022-08-03T07:48:01.876Z,28736.00
2022-08-03T07:50:02.014Z,30752.00
2022-08-03T07:52:02.099Z,29664.00
2022-08-03T07:54:02.283Z,26336.00
2022-08-03T07:56:02.391Z,23040.00
2022-08-03T07:58:02.562Z,17728.00
2022-08-03T08:00:03.095Z,13280.00
2022-08-03T08:02:02.814Z,11968.00
2022-08-03T08:04:03.017Z,11196.00
2022-08-03T08:06:03.198Z,10832.00
2022-08-03T08:08:03.263Z,10668.00
2022-08-03T08:10:03.620Z,10376.00
2022-08-03T08:12:03.534Z,10772.00
2022-08-03T08:14:04.722Z,11024.00
2022-08-03T08:16:03.819Z,11544.00
2022-08-03T08:18:03.961Z,13344.00
2022-08-03T08:20:04.165Z,18464.00
2022-08-03T08:22:04.252Z,22816.00
2022-08-03T08:24:07.233Z,26752.00
2022-08-03T08:26:05.574Z,27968.00
2022-08-03T08:28:29.647Z,33760.00
2022-08-03T08:30:11.478Z,38976.00
2022-08-03T08:32:05.929Z,37408.00
2022-08-03T08:34:05.190Z,44032.00
2022-08-03T08:36:05.169Z,45728.00
2022-08-03T08:38:05.729Z,40416.00
2022-08-03T08:40:05.458Z,40032.00
2022-08-03T08:42:05.593Z,44768.00
2022-08-03T08:44:05.724Z,48960.00
2022-08-03T08:46:05.907Z,44960.00
2022-08-03T08:48:08.356Z,43456.00
2022-08-03T08:50:10.048Z,43328.00
2022-08-03T08:52:25.407Z,46016.00
2022-08-03T08:54:07.457Z,36384.00
2022-08-03T08:56:06.614Z,39488.00
2022-08-03T08:58:06.737Z,37824.00
2022-08-03T09:00:06.853Z,29280.00
2022-08-03T09:02:07.154Z,27520.00
2022-08-03T09:04:07.167Z,25504.00
2022-08-03T09:06:07.301Z,28800.00
2022-08-03T09:08:07.515Z,32544.00
2022-08-03T09:10:12.987Z,31552.00
2022-08-03T09:12:35.359Z,28800.00
2022-08-03T09:14:08.878Z,23520.00
2022-08-03T09:16:07.996Z,19936.00
2022-08-03T09:18:08.122Z,18112.00
2022-08-03T09:20:08.237Z,16352.00
2022-08-03T09:22:08.425Z,15040.00
2022-08-03T09:24:20.631Z,14304.00
2022-08-03T09:26:09.690Z,13888.00
2022-08-03T09:28:09.138Z,13344.00
2022-08-03T09:30:33.820Z,12960.00
2022-08-03T09:32:10.160Z,12512.00
2022-08-03T09:34:09.287Z,11888.00
2022-08-03T09:36:09.391Z,11536.00
2022-08-03T09:38:13.830Z,11232.00
2022-08-03T09:40:09.702Z,11000.00
2022-08-03T09:42:09.891Z,10828.00
2022-08-03T09:44:24.128Z,10628.00
2022-08-03T09:46:11.080Z,10512.00
2022-08-03T09:48:10.239Z,10364.00
2022-08-03T09:50:10.785Z,10252.00
2022-08-03T09:52:38.310Z,10164.00
2022-08-03T09:54:18.887Z,10052.00
2022-08-03T09:56:36.146Z,9968.00
2022-08-03T09:58:11.945Z,9940.00
2022-08-03T10:00:11.055Z,9896.00
2022-08-03T10:02:11.196Z,9900.00
2022-08-03T10:04:12.021Z,9884.00
2022-08-03T10:06:11.491Z,9904.00
2022-08-03T10:08:11.679Z,10092.00
2022-08-03T10:10:30.013Z,10092.00
2022-08-03T10:12:12.877Z,10140.00
2022-08-03T10:14:12.035Z,10464.00
2022-08-03T10:16:23.555Z,10468.00
2022-08-03T10:18:13.278Z,10500.00
2022-08-03T10:20:12.463Z,10216.00
2022-08-03T10:22:12.585Z,10108.00
2022-08-03T10:24:12.895Z,10008.00
2022-08-03T10:26:12.778Z,9880.00
2022-08-03T10:28:12.943Z,9944.00
2022-08-03T10:30:13.177Z,9804.00
2022-08-03T10:32:13.194Z,9592.00
2022-08-03T10:34:13.306Z,9588.00
2022-08-03T10:36:13.463Z,9676.00
2022-08-03T10:38:13.612Z,9848.00
2022-08-03T10:40:23.188Z,10008.00
2022-08-03T10:42:14.987Z,10144.00
2022-08-03T10:44:13.992Z,9492.00
2022-08-03T10:46:14.172Z,10188.00
2022-08-03T10:48:14.319Z,10196.00
2022-08-03T10:50:14.444Z,10312.00
2022-08-03T10:52:31.920Z,10092.00
2022-08-03T10:54:15.683Z,9900.00
2022-08-03T10:56:14.816Z,9792.00
2022-08-03T10:58:30.265Z,9796.00
2022-08-03T11:00:16.150Z,9776.00
2022-08-03T11:02:15.205Z,9740.00
2022-08-03T11:04:17.096Z,9700.00
2022-08-03T11:06:15.643Z,9600.00
2022-08-03T11:08:15.629Z,9552.00
2022-08-03T11:10:15.791Z,9636.00
2022-08-03T11:12:15.874Z,9776.00
2022-08-03T11:14:16.114Z,9880.00
2022-08-03T11:16:21.235Z,9996.00
2022-08-03T11:18:17.273Z,10268.00
2022-08-03T11:20:16.392Z,10420.00
2022-08-03T11:22:16.572Z,10892.00
2022-08-03T11:24:16.712Z,11788.00
2022-08-03T11:26:16.876Z,13792.00
2022-08-03T11:28:17.021Z,15008.00
2022-08-03T11:30:17.214Z,15936.00
2022-08-03T11:32:19.556Z,16896.00
2022-08-03T11:34:17.491Z,17952.00
2022-08-03T11:36:32.279Z,19936.00
2022-08-03T11:38:18.770Z,18848.00
2022-08-03T11:40:17.801Z,20768.00
2022-08-03T11:42:17.953Z,19424.00
2022-08-03T11:44:18.136Z,20448.00
2022-08-03T11:46:18.221Z,18464.00
2022-08-03T11:48:19.375Z,17504.00
2022-08-03T11:50:18.581Z,16768.00
2022-08-03T11:52:18.628Z,16992.00
2022-08-03T11:54:18.887Z,16800.00
2022-08-03T11:56:18.906Z,16160.00
2022-08-03T11:59:10.922Z,15744.00
2022-08-03T12:00:20.265Z,15264.00
2022-08-03T12:02:19.382Z,13760.00
2022-08-03T12:04:19.597Z,11680.00
2022-08-03T12:06:19.746Z,9372.00
2022-08-03T12:08:19.753Z,8592.00
2022-08-03T12:10:19.930Z,8180.00
2022-08-03T12:12:20.082Z,7804.00
2022-08-03T12:14:48.980Z,7620.00
2022-08-03T12:16:21.341Z,7436.00
2022-08-03T12:18:20.539Z,7324.00
2022-08-03T12:20:20.653Z,7152.00
2022-08-03T12:22:21.781Z,7060.00
2022-08-03T12:24:20.939Z,6972.00
2022-08-03T12:26:21.097Z,6916.00
2022-08-03T12:28:36.479Z,6908.00
2022-08-03T12:30:22.314Z,6836.00
2022-08-03T12:32:21.495Z,6784.00
2022-08-03T12:34:21.635Z,6656.00
2022-08-03T12:36:21.727Z,6596.00
2022-08-03T12:38:21.962Z,6476.00
2022-08-03T12:40:25.158Z,6508.00
2022-08-03T12:42:23.154Z,6400.00
2022-08-03T12:44:22.495Z,6284.00
2022-08-03T12:46:22.446Z,6252.00
2022-08-03T12:48:23.487Z,6120.00
2022-08-03T12:50:23.708Z,6028.00
2022-08-03T12:52:22.805Z,5960.00
2022-08-03T12:54:24.595Z,5912.00
2022-08-03T12:56:23.056Z,5868.00
2022-08-03T12:58:23.210Z,5768.00
2022-08-03T13:00:29.542Z,5712.00
2022-08-03T13:02:24.665Z,5600.00
2022-08-03T13:04:23.626Z,5484.00
2022-08-03T13:06:23.776Z,5428.00
2022-08-03T13:08:23.931Z,5376.00
2022-08-03T13:10:24.032Z,5320.00
2022-08-03T13:12:24.167Z,5248.00
2022-08-03T13:14:24.299Z,5208.00
2022-08-03T13:16:24.522Z,5168.00
2022-08-03T13:18:24.611Z,5072.00
2022-08-03T13:20:24.667Z,5060.00
2022-08-03T13:22:24.821Z,4972.00
2022-08-03T13:24:24.930Z,4972.00
2022-08-03T13:26:25.027Z,4912.00
2022-08-03T13:28:25.240Z,4884.00
2022-08-03T13:30:30.434Z,4772.00
2022-08-03T13:32:26.452Z,4708.00
2022-08-03T13:34:25.613Z,4624.00
2022-08-03T13:36:25.653Z,4560.00
2022-08-03T13:38:26.997Z,4516.00
2022-08-03T13:40:30.131Z,4364.00
2022-08-03T13:42:26.023Z,4256.00
2022-08-03T13:44:29.409Z,4096.00
2022-08-03T13:46:26.435Z,4032.00
2022-08-03T13:48:35.860Z,3960.00
2022-08-03T13:50:27.578Z,3924.00
2022-08-03T13:52:26.690Z,3876.00
2022-08-03T13:54:26.830Z,3848.00
2022-08-03T13:56:26.959Z,3812.00
2022-08-03T13:58:27.046Z,3808.00
2022-08-03T14:00:29.591Z,3748.00
2022-08-03T14:02:27.315Z,3728.00
2022-08-03T14:04:27.457Z,3728.00
2022-08-03T14:06:27.519Z,3684.00
2022-08-03T14:08:27.620Z,3656.00
2022-08-03T14:10:27.854Z,3644.00
2022-08-03T14:12:27.876Z,3612.00
2022-08-03T14:14:28.627Z,3604.00
2022-08-03T14:16:28.131Z,3556.00
2022-08-03T14:18:33.474Z,3536.00
2022-08-03T14:20:37.786Z,3528.00
2022-08-03T14:22:29.527Z,3472.00
2022-08-03T14:24:28.659Z,3456.00
2022-08-03T14:26:28.696Z,3412.00
2022-08-03T14:28:28.889Z,3388.00
2022-08-03T14:30:29.002Z,3372.00
2022-08-03T14:32:29.091Z,3348.00
2022-08-03T14:34:29.248Z,3296.00
2022-08-03T14:36:29.339Z,3316.00
2022-08-03T14:38:29.451Z,3292.00
2022-08-03T14:40:29.520Z,3268.00
2022-08-03T14:42:29.705Z,3236.00
2022-08-03T14:44:29.797Z,3216.00
2022-08-03T14:46:30.090Z,3196.00
2022-08-03T14:50:30.652Z,3172.00
2022-08-03T14:50:42.848Z,3124.00
2022-08-03T14:52:31.253Z,3132.00
2022-08-03T14:54:30.514Z,3124.00
2022-08-03T14:56:31.531Z,3100.00
2022-08-03T14:58:30.700Z,3060.00
2022-08-03T15:00:30.750Z,3028.00
2022-08-03T15:02:30.947Z,2980.00
2022-08-03T15:04:30.965Z,2940.00
2022-08-03T15:06:31.221Z,2884.00
2022-08-03T15:08:31.187Z,2796.00
2022-08-03T15:10:43.775Z,2636.00
2022-08-03T15:12:32.469Z,2468.00
2022-08-03T15:14:33.423Z,2372.00
2022-08-03T15:16:31.642Z,2316.00
2022-08-03T15:18:31.783Z,2280.00
2022-08-03T15:20:43.205Z,2248.00
2022-08-03T15:22:34.570Z,2232.00
2022-08-03T15:24:32.128Z,2188.00
2022-08-03T15:26:36.618Z,2156.00
2022-08-03T15:28:33.399Z,2116.00
2022-08-03T15:30:32.473Z,2036.00
2022-08-03T15:32:32.589Z,2004.00
2022-08-03T15:34:32.946Z,1984.00
2022-08-03T15:36:32.819Z,1964.00
2022-08-03T15:38:32.937Z,1936.00
2022-08-03T15:40:33.017Z,1936.00
2022-08-03T15:42:33.469Z,1916.00
2022-08-03T15:44:33.307Z,1892.00
2022-08-03T15:46:33.522Z,1880.00
2022-08-03T15:48:33.554Z,1876.00
2022-08-03T15:50:33.647Z,1868.00
2022-08-03T15:52:33.762Z,1856.00
2022-08-03T15:54:34.031Z,1840.00
2022-08-03T15:56:33.935Z,1828.00
2022-08-03T15:59:03.990Z,1808.00
2022-08-03T16:00:35.317Z,1784.00
2022-08-03T16:02:34.328Z,1776.00
2022-08-03T16:04:34.436Z,1760.00
2022-08-03T16:06:36.045Z,1744.00
2022-08-03T16:08:34.699Z,1720.00
2022-08-03T16:10:34.808Z,1704.00
2022-08-03T16:12:35.018Z,1704.00
2022-08-03T16:14:46.861Z,1704.00
2022-08-03T16:16:36.168Z,1688.00
2022-08-03T16:18:35.303Z,1680.00
2022-08-03T16:20:35.595Z,1672.00
2022-08-03T16:22:35.483Z,1664.00
2022-08-03T16:24:35.642Z,1648.00
2022-08-03T16:26:35.854Z,1640.00
2022-08-03T16:28:36.086Z,1632.00
2022-08-03T16:30:36.035Z,1628.00
2022-08-03T16:32:36.230Z,1620.00
2022-08-03T16:34:36.334Z,1608.00
2022-08-03T16:36:36.354Z,1600.00
2022-08-03T16:38:36.536Z,1596.00
2022-08-03T16:40:36.614Z,1588.00
2022-08-03T16:42:36.686Z,1576.00
2022-08-03T16:44:36.914Z,1560.00
2022-08-03T16:46:36.997Z,1548.00
2022-08-03T16:48:37.080Z,1536.00
2022-08-03T16:50:37.280Z,1516.00
2022-08-03T16:52:37.339Z,1504.00
2022-08-03T16:54:37.451Z,1492.00
2022-08-03T16:56:37.510Z,1480.00
2022-08-03T16:58:42.386Z,1468.00
2022-08-03T17:00:41.564Z,1460.00
2022-08-03T17:02:37.915Z,1452.00
2022-08-03T17:04:40.187Z,1436.00
2022-08-03T17:06:38.085Z,1424.00
2022-08-03T17:08:40.422Z,1416.00
2022-08-03T17:10:38.325Z,1396.00
2022-08-03T17:12:38.494Z,1380.00
2022-08-03T17:14:38.608Z,1372.00
2022-08-03T17:16:38.693Z,1360.00
2022-08-03T17:18:49.503Z,1348.00
2022-08-03T17:20:39.983Z,1336.00
2022-08-03T17:22:39.095Z,1316.00
2022-08-03T17:24:41.468Z,1300.00
2022-08-03T17:26:39.367Z,1288.00
2022-08-03T17:28:49.513Z,1272.00
2022-08-03T17:30:40.679Z,1256.00
2022-08-03T17:32:42.757Z,1240.00
2022-08-03T17:34:41.080Z,1224.00
2022-08-03T17:37:03.323Z,1204.00
2022-08-03T17:38:41.134Z,1168.00
2022-08-03T17:40:43.089Z,1020.00
2022-08-03T17:42:41.407Z,1012.00
2022-08-03T17:44:46.390Z,1120.00
2022-08-03T17:46:41.623Z,1100.00
2022-08-03T17:48:41.525Z,1080.00
2022-08-03T17:50:40.799Z,1060.00
2022-08-03T17:52:41.151Z,1040.00
2022-08-03T17:55:50.502Z,996.00
2022-08-03T17:56:46.249Z,968.00
2022-08-03T17:58:41.620Z,960.00
2022-08-03T18:00:42.810Z,860.00
2022-08-03T18:02:47.758Z,808.00
2022-08-03T18:04:42.657Z,808.00
2022-08-03T18:06:55.586Z,840.00
2022-08-03T18:08:42.953Z,844.00
2022-08-03T18:10:49.795Z,832.00
2022-08-03T18:12:43.489Z,816.00
2022-08-03T18:14:42.329Z,788.00
2022-08-03T18:16:43.625Z,764.00
2022-08-03T18:18:43.045Z,736.00
2022-08-03T18:20:45.506Z,708.00
2022-08-03T18:22:42.861Z,684.00
2022-08-03T18:24:42.950Z,664.00
2022-08-03T18:26:43.039Z,632.00
2022-08-03T18:28:44.175Z,604.00
2022-08-03T18:30:54.712Z,572.00
2022-08-03T18:32:44.405Z,544.00
2022-08-03T18:34:53.474Z,512.00
2022-08-03T18:36:44.669Z,488.00
2022-08-03T18:38:43.819Z,456.00
2022-08-03T18:40:48.460Z,428.00
2022-08-03T18:42:51.068Z,400.00
2022-08-03T18:44:54.095Z,372.00
2022-08-03T18:46:45.366Z,348.00
2022-08-03T18:48:46.069Z,320.00
2022-08-03T18:50:49.648Z,288.00
2022-08-03T18:52:53.001Z,256.00
2022-08-03T18:55:01.182Z,224.00
2022-08-03T18:56:46.018Z,196.00
2022-08-03T18:58:45.101Z,172.00
2022-08-03T19:00:54.190Z,152.00
2022-08-03T19:02:48.954Z,128.00
2022-08-03T19:04:45.511Z,112.00
2022-08-03T19:06:45.668Z,100.00
2022-08-03T19:08:45.724Z,88.00
2022-08-03T19:10:57.539Z,72.00
2022-08-03T19:12:47.040Z,60.00
2022-08-03T19:14:46.106Z,48.00
2022-08-03T19:16:46.262Z,40.00
2022-08-03T19:18:46.383Z,28.00
2022-08-03T19:20:46.783Z,20.00
2022-08-03T19:22:46.604Z,20.00
2022-08-03T19:24:46.783Z,12.00
2022-08-03T19:26:48.645Z,8.00
2022-08-03T19:28:48.147Z,8.00
2022-08-03T19:30:53.716Z,4.00
2022-08-03T19:32:48.479Z,4.00
2022-08-03T19:34:47.451Z,0.00
2022-08-03T19:36:47.547Z,4.00
2022-08-03T19:38:47.706Z,0.00
2022-08-03T19:40:51.092Z,4.00
2022-08-03T19:42:48.189Z,0.00
2022-08-03T19:44:48.098Z,0.00
2022-08-03T19:46:48.268Z,0.00
2022-08-03T19:48:48.597Z,0.00
2022-08-03T19:50:48.551Z,0.00
2022-08-03T19:52:48.832Z,0.00
2022-08-03T19:54:53.163Z,0.00
2022-08-03T19:56:49.947Z,0.00
2022-08-03T19:58:53.273Z,0.00
2022-08-03T20:00:49.172Z,0.00
2022-08-03T20:02:50.894Z,0.00
2022-08-03T20:04:49.454Z,0.00
2022-08-03T20:06:49.766Z,0.00
2022-08-03T20:10:51.384Z,0.00
2022-08-03T20:12:49.877Z,0.00
2022-08-03T20:14:49.942Z,0.00
2022-08-03T20:16:50.060Z,0.00
2022-08-03T20:18:50.239Z,0.00
2022-08-03T20:20:50.373Z,0.00
2022-08-03T20:22:50.558Z,0.00
2022-08-03T20:24:53.189Z,0.00
2022-08-03T20:26:52.513Z,0.00
2022-08-03T20:28:51.242Z,0.00
2022-08-03T20:30:50.948Z,0.00
2022-08-03T20:32:51.082Z,0.00
2022-08-03T20:34:51.258Z,0.00
2022-08-03T20:36:51.330Z,0.00
2022-08-03T20:38:53.138Z,0.00
2022-08-03T20:40:51.548Z,0.00
2022-08-03T20:42:52.104Z,0.00
2022-08-03T20:45:05.207Z,0.00
2022-08-03T20:47:00.207Z,0.00
2022-08-03T20:48:53.112Z,0.00
2022-08-03T20:50:52.242Z,0.00
2022-08-03T20:52:54.170Z,0.00
2022-08-03T20:54:52.537Z,0.00
2022-08-03T20:56:52.918Z,0.00
2022-08-03T20:58:52.791Z,0.00
2022-08-03T21:00:52.947Z,0.00
2022-08-03T21:02:53.047Z,0.00
2022-08-03T21:04:53.270Z,0.00
2022-08-03T21:06:53.684Z,0.00
2022-08-03T21:08:53.427Z,0.00
2022-08-03T21:10:53.761Z,0.00
2022-08-03T21:12:53.694Z,0.00
2022-08-03T21:13:03.563Z,0.00
2022-08-03T21:14:53.838Z,0.00
2022-08-03T21:16:53.928Z,0.00
2022-08-03T21:18:54.015Z,0.00
2022-08-03T21:20:54.603Z,0.00
2022-08-03T21:22:54.375Z,0.00
2022-08-03T21:24:54.528Z,0.00
2022-08-03T21:26:54.820Z,0.00
2022-08-03T21:28:54.752Z,0.00
2022-08-03T21:30:54.874Z,0.00
2022-08-03T21:32:55.032Z,0.00
2022-08-03T21:34:55.134Z,0.00
2022-08-03T21:36:55.322Z,0.00
2022-08-03T21:38:56.333Z,0.00
2022-08-03T21:40:55.556Z,0.00
2022-08-03T21:42:55.668Z,0.00
2022-08-03T21:44:55.829Z,0.00
2022-08-03T21:46:55.970Z,0.00
2022-08-03T21:48:56.701Z,0.00
2022-08-03T21:50:57.251Z,0.00
2022-08-03T21:52:56.337Z,0.00
2022-08-03T21:54:56.451Z,0.00
2022-08-03T21:56:56.641Z,0.00
2022-08-03T21:58:56.739Z,0.00
2022-08-03T22:00:56.892Z,0.00
2022-08-03T22:02:57.143Z,0.00
2022-08-03T22:04:57.523Z,0.00
2022-08-03T22:06:57.302Z,0.00
2022-08-03T22:08:57.730Z,0.00
2022-08-03T22:10:57.564Z,0.00
2022-08-03T22:12:57.685Z,0.00
2022-08-03T22:15:01.346Z,0.00
2022-08-03T22:16:57.904Z,0.00
2022-08-03T22:18:58.036Z,0.00
2022-08-03T22:20:58.229Z,0.00
2022-08-03T22:22:58.314Z,0.00
2022-08-03T22:24:58.427Z,0.00
2022-08-03T22:26:58.575Z,0.00
2022-08-03T22:28:58.670Z,0.00
2022-08-03T22:30:58.766Z,0.00
2022-08-03T22:32:58.913Z,0.00
2022-08-03T22:34:59.095Z,0.00
2022-08-03T22:37:00.445Z,0.00
2022-08-03T22:38:59.387Z,0.00
2022-08-03T22:40:59.435Z,0.00
2022-08-03T22:42:59.621Z,0.00
2022-08-03T22:44:59.743Z,0.00
2022-08-03T22:47:00.175Z,0.00
2022-08-03T22:48:59.998Z,0.00
2022-08-03T22:51:00.451Z,0.00
2022-08-03T22:53:00.222Z,0.00
2022-08-03T22:55:00.379Z,0.00
2022-08-03T22:57:00.486Z,0.00
2022-08-03T22:59:00.668Z,0.00
2022-08-03T23:01:01.909Z,0.00
2022-08-03T23:03:00.944Z,0.00
2022-08-03T23:05:01.076Z,0.00
2022-08-03T23:07:01.076Z,0.00
2022-08-03T23:09:01.320Z,0.00
2022-08-03T23:11:01.414Z,0.00
2022-08-03T23:13:01.533Z,0.00
2022-08-03T23:15:01.785Z,0.00
2022-08-03T23:17:01.818Z,0.00
2022-08-03T23:19:16.347Z,0.00
2022-08-03T23:21:10.993Z,0.00
2022-08-03T23:23:03.150Z,0.00
2022-08-03T23:25:02.325Z,0.00
2022-08-03T23:27:02.884Z,0.00
2022-08-03T23:29:02.698Z,0.00
2022-08-03T23:31:02.727Z,0.00
2022-08-03T23:33:03.253Z,0.00
2022-08-03T23:35:02.940Z,0.00
2022-08-03T23:37:03.433Z,0.00
2022-08-03T23:39:03.309Z,0.00
2022-08-03T23:41:03.328Z,0.00
2022-08-03T23:43:03.875Z,0.00
2022-08-03T23:45:05.821Z,0.00
2022-08-03T23:47:03.729Z,0.00
2022-08-03T23:49:04.199Z,0.00
2022-08-03T23:51:04.078Z,0.00
2022-08-03T23:53:04.192Z,0.00
2022-08-03T23:55:04.266Z,0.00
2022-08-03T23:57:04.758Z,0.00
2022-08-03T23:59:04.583Z,0.00
